createdAt,value
2023-01-20T00:01:14.539Z,90.20
2023-01-20T00:03:42.808Z,90.40
2023-01-20T00:06:09.946Z,90.40
2023-01-20T00:08:36.764Z,90.40
2023-01-20T00:11:09.303Z,90.50
2023-01-20T00:13:37.277Z,90.90
2023-01-20T00:16:09.153Z,90.70
2023-01-20T00:18:36.191Z,90.70
2023-01-20T00:21:04.492Z,90.60
2023-01-20T00:23:31.661Z,91.00
2023-01-20T00:25:58.550Z,91.30
2023-01-20T00:28:25.478Z,91.10
2023-01-20T00:30:52.113Z,91.20
2023-01-20T00:33:18.818Z,91.10
2023-01-20T00:35:45.485Z,90.90
2023-01-20T00:38:12.211Z,91.00
2023-01-20T00:40:38.856Z,90.90
2023-01-20T00:43:05.498Z,91.20
2023-01-20T00:45:32.155Z,91.40
2023-01-20T00:47:58.733Z,91.60
2023-01-20T00:50:25.361Z,91.60
2023-01-20T00:52:51.965Z,91.30
2023-01-20T00:55:18.589Z,91.20
2023-01-20T00:57:45.241Z,91.40
2023-01-20T01:00:12.221Z,91.40
2023-01-20T01:02:39.977Z,91.20
2023-01-20T01:05:06.924Z,91.10
2023-01-20T01:07:33.549Z,91.20
2023-01-20T01:10:00.173Z,91.30
2023-01-20T01:12:26.774Z,91.10
2023-01-20T01:14:53.503Z,91.20
2023-01-20T01:17:21.093Z,91.10
2023-01-20T01:19:47.724Z,91.30
2023-01-20T01:22:14.362Z,91.30
2023-01-20T01:24:44.356Z,91.40
2023-01-20T01:27:11.837Z,91.70
2023-01-20T01:29:38.897Z,92.10
2023-01-20T01:32:06.836Z,92.10
2023-01-20T01:34:34.105Z,92.10
2023-01-20T01:37:00.795Z,92.20
2023-01-20T01:39:27.773Z,92.30
2023-01-20T01:41:54.422Z,92.30
2023-01-20T01:44:21.144Z,92.10
2023-01-20T01:46:47.778Z,92.30
2023-01-20T01:49:24.845Z,92.10
2023-01-20T01:52:00.784Z,92.30
2023-01-20T01:54:33.093Z,92.40
2023-01-20T01:57:00.650Z,92.30
2023-01-20T01:59:27.629Z,92.30
2023-01-20T02:01:55.279Z,92.30
2023-01-20T02:04:27.622Z,92.20
2023-01-20T02:07:16.269Z,92.30
2023-01-20T02:09:42.849Z,92.70
2023-01-20T02:12:15.224Z,92.90
2023-01-20T02:14:47.006Z,92.70
2023-01-20T02:17:30.513Z,93.00
2023-01-20T02:20:15.986Z,93.30
2023-01-20T02:23:06.796Z,93.20
2023-01-20T02:25:42.653Z,93.00
2023-01-20T02:28:27.345Z,92.90
2023-01-20T02:30:56.696Z,92.90
2023-01-20T02:33:41.415Z,92.80
2023-01-20T02:36:20.212Z,92.90
2023-01-20T02:39:27.640Z,92.80
2023-01-20T02:42:14.144Z,92.90
2023-01-20T02:44:56.607Z,92.80
2023-01-20T02:47:37.304Z,92.60
2023-01-20T02:50:36.298Z,92.40
2023-01-20T02:53:04.640Z,92.40
2023-01-20T02:55:36.019Z,92.40
2023-01-20T02:58:16.926Z,92.20
2023-01-20T03:01:02.185Z,92.30
2023-01-20T03:03:34.112Z,92.10
2023-01-20T03:06:03.708Z,92.00
2023-01-20T03:08:32.218Z,91.90
2023-01-20T03:11:06.142Z,91.90
2023-01-20T03:13:46.103Z,91.90
2023-01-20T03:16:19.864Z,91.90
2023-01-20T03:18:46.705Z,91.90
2023-01-20T03:21:13.752Z,91.80
2023-01-20T03:23:46.327Z,91.90
2023-01-20T03:26:16.138Z,91.80
2023-01-20T03:28:44.882Z,91.90
2023-01-20T03:31:26.326Z,91.90
2023-01-20T03:33:55.629Z,92.30
2023-01-20T03:36:25.116Z,92.40
2023-01-20T03:38:52.909Z,92.30
2023-01-20T03:41:26.358Z,92.40
2023-01-20T03:44:02.089Z,92.40
2023-01-20T03:46:40.242Z,92.60
2023-01-20T03:49:25.023Z,93.10
2023-01-20T03:52:01.910Z,93.20
2023-01-20T03:54:36.742Z,93.10
2023-01-20T03:57:17.094Z,92.90
2023-01-20T03:59:45.601Z,92.60
2023-01-20T04:02:12.742Z,92.60
2023-01-20T04:04:43.189Z,92.60
2023-01-20T04:07:18.288Z,93.10
2023-01-20T04:09:51.204Z,93.30
2023-01-20T04:12:17.961Z,93.10
2023-01-20T04:14:44.664Z,93.10
2023-01-20T04:17:12.807Z,93.20
2023-01-20T04:19:39.410Z,93.00
2023-01-20T04:22:31.121Z,93.20
2023-01-20T04:25:20.580Z,92.90
2023-01-20T04:27:47.182Z,93.40
2023-01-20T04:30:14.417Z,93.40
2023-01-20T04:32:41.136Z,93.70
2023-01-20T04:35:09.301Z,93.40
2023-01-20T04:37:35.936Z,93.90
2023-01-20T04:40:02.522Z,94.30
2023-01-20T04:42:29.145Z,94.10
2023-01-20T04:44:55.727Z,94.10
2023-01-20T04:47:22.525Z,94.10
2023-01-20T04:49:49.127Z,94.20
2023-01-20T04:52:16.635Z,94.30
2023-01-20T04:54:43.319Z,94.30
2023-01-20T04:57:09.939Z,94.40
2023-01-20T04:59:36.532Z,94.40
2023-01-20T05:02:03.173Z,94.40
2023-01-20T05:04:29.875Z,94.50
2023-01-20T05:06:56.480Z,94.40
2023-01-20T05:09:23.067Z,94.30
2023-01-20T05:11:49.717Z,94.10
2023-01-20T05:14:16.311Z,93.90
2023-01-20T05:16:42.932Z,94.00
2023-01-20T05:19:12.060Z,94.00
2023-01-20T05:21:38.930Z,94.30
2023-01-20T05:24:05.854Z,94.20
2023-01-20T05:26:33.139Z,94.00
2023-01-20T05:28:59.789Z,93.90
2023-01-20T05:31:26.626Z,93.90
2023-01-20T05:33:53.233Z,93.80
2023-01-20T05:36:19.863Z,93.90
2023-01-20T05:38:46.503Z,94.30
2023-01-20T05:41:13.396Z,94.30
2023-01-20T05:43:40.096Z,94.30
2023-01-20T05:46:07.021Z,94.40
2023-01-20T05:48:33.778Z,94.40
2023-01-20T05:51:00.440Z,94.40
2023-01-20T05:53:27.074Z,94.40
2023-01-20T05:56:01.746Z,94.40
2023-01-20T05:58:29.187Z,94.80
2023-01-20T06:01:03.460Z,94.40
2023-01-20T06:03:30.158Z,94.40
2023-01-20T06:06:01.257Z,94.30
2023-01-20T06:08:27.977Z,94.40
2023-01-20T06:10:54.687Z,94.60
2023-01-20T06:13:21.440Z,94.50
2023-01-20T06:15:55.061Z,94.30
2023-01-20T06:18:22.246Z,94.20
2023-01-20T06:20:48.890Z,94.40
2023-01-20T06:23:15.995Z,94.40
2023-01-20T06:25:42.621Z,94.50
2023-01-20T06:28:09.371Z,94.70
2023-01-20T06:30:36.140Z,94.60
2023-01-20T06:33:02.814Z,94.90
2023-01-20T06:35:29.434Z,95.00
2023-01-20T06:37:58.884Z,94.90
2023-01-20T06:40:25.677Z,94.90
2023-01-20T06:42:52.328Z,94.80
2023-01-20T06:45:18.991Z,94.70
2023-01-20T06:47:49.209Z,94.80
2023-01-20T06:50:16.467Z,94.90
2023-01-20T06:52:43.103Z,95.10
2023-01-20T06:55:09.847Z,94.80
2023-01-20T06:57:36.523Z,95.00
2023-01-20T07:00:03.929Z,94.90
2023-01-20T07:02:30.596Z,94.90
2023-01-20T07:04:57.197Z,94.90
2023-01-20T07:07:23.838Z,94.80
2023-01-20T07:09:54.564Z,94.90
2023-01-20T07:12:21.202Z,95.20
2023-01-20T07:14:47.781Z,95.00
2023-01-20T07:17:14.389Z,95.30
2023-01-20T07:19:41.032Z,95.10
2023-01-20T07:22:07.682Z,95.10
2023-01-20T07:24:34.317Z,95.10
2023-01-20T07:27:01.020Z,95.00
2023-01-20T07:29:27.772Z,95.10
2023-01-20T07:31:54.439Z,95.00
2023-01-20T07:34:21.232Z,94.90
2023-01-20T07:36:47.845Z,94.80
2023-01-20T07:39:15.466Z,94.50
2023-01-20T07:41:43.756Z,94.70
2023-01-20T07:44:10.785Z,94.90
2023-01-20T07:46:37.436Z,94.80
2023-01-20T07:49:04.004Z,94.90
2023-01-20T07:51:30.597Z,94.80
2023-01-20T07:53:57.242Z,94.90
2023-01-20T07:56:29.507Z,94.70
2023-01-20T07:58:56.783Z,94.80
2023-01-20T08:01:29.158Z,94.80
2023-01-20T08:03:56.329Z,94.70
2023-01-20T08:06:25.475Z,94.70
2023-01-20T08:08:52.832Z,94.60
2023-01-20T08:11:20.850Z,94.40
2023-01-20T08:13:47.842Z,94.50
2023-01-20T08:16:17.036Z,94.80
2023-01-20T08:18:43.702Z,95.00
2023-01-20T08:21:19.646Z,94.90
2023-01-20T08:23:46.303Z,94.80
2023-01-20T08:26:13.096Z,94.90
2023-01-20T08:28:39.676Z,94.60
2023-01-20T08:31:09.355Z,94.70
2023-01-20T08:33:36.502Z,94.60
2023-01-20T08:36:07.838Z,94.70
2023-01-20T08:38:34.949Z,94.60
2023-01-20T08:41:02.119Z,94.80
2023-01-20T08:43:28.968Z,94.70
2023-01-20T08:46:07.263Z,95.20
2023-01-20T08:48:35.340Z,95.10
2023-01-20T08:51:12.023Z,94.80
2023-01-20T08:53:38.794Z,94.80
2023-01-20T08:56:05.847Z,94.70
2023-01-20T08:58:33.541Z,94.90
2023-01-20T09:01:00.353Z,94.90
2023-01-20T09:03:27.628Z,94.90
2023-01-20T09:05:54.286Z,95.00
2023-01-20T09:08:21.175Z,94.70
2023-01-20T09:10:47.817Z,94.70
2023-01-20T09:13:14.469Z,94.70
2023-01-20T09:15:41.202Z,94.80
2023-01-20T09:18:07.857Z,94.50
2023-01-20T09:20:34.690Z,94.90
2023-01-20T09:23:03.027Z,94.80
2023-01-20T09:25:29.780Z,94.90
2023-01-20T09:27:59.580Z,94.90
2023-01-20T09:30:26.199Z,94.70
2023-01-20T09:32:55.224Z,94.80
2023-01-20T09:35:21.963Z,94.80
2023-01-20T09:38:07.262Z,94.80
2023-01-20T09:41:24.343Z,94.90
2023-01-20T09:44:01.603Z,94.80
2023-01-20T09:46:30.758Z,94.90
2023-01-20T09:49:48.945Z,94.60
2023-01-20T09:52:51.697Z,94.50
2023-01-20T09:55:50.671Z,94.60
2023-01-20T09:58:41.680Z,94.50
2023-01-20T10:01:19.972Z,94.50
2023-01-20T10:03:56.902Z,94.70
2023-01-20T10:06:31.163Z,94.70
2023-01-20T10:09:08.096Z,94.60
2023-01-20T10:11:44.762Z,94.20
2023-01-20T10:14:25.291Z,94.20
2023-01-20T10:16:58.182Z,94.10
2023-01-20T10:19:49.013Z,94.10
2023-01-20T10:22:50.988Z,93.90
2023-01-20T10:25:41.125Z,93.80
2023-01-20T10:28:28.416Z,93.50
2023-01-20T10:31:01.615Z,93.70
2023-01-20T10:33:49.080Z,93.40
2023-01-20T10:36:23.230Z,93.70
2023-01-20T10:38:55.836Z,93.60
2023-01-20T10:41:27.186Z,93.40
2023-01-20T10:43:55.904Z,93.50
2023-01-20T10:46:25.369Z,93.40
2023-01-20T10:49:21.001Z,93.10
2023-01-20T10:52:10.637Z,92.80
2023-01-20T10:54:46.672Z,92.60
2023-01-20T10:57:15.502Z,93.00
2023-01-20T10:59:50.051Z,93.20
2023-01-20T11:02:28.109Z,93.10
2023-01-20T11:05:01.482Z,93.20
2023-01-20T11:07:31.419Z,93.20
2023-01-20T11:10:01.059Z,93.10
2023-01-20T11:12:35.163Z,93.30
2023-01-20T11:15:02.394Z,93.00
2023-01-20T11:17:29.074Z,93.10
2023-01-20T11:19:58.088Z,93.40
2023-01-20T11:22:32.915Z,93.10
2023-01-20T11:25:01.619Z,93.40
2023-01-20T11:27:43.528Z,93.20
2023-01-20T11:30:36.498Z,93.30
2023-01-20T11:33:20.960Z,93.30
2023-01-20T11:36:16.705Z,93.10
2023-01-20T11:38:48.675Z,93.30
2023-01-20T11:41:26.329Z,93.40
2023-01-20T11:43:55.859Z,93.30
2023-01-20T11:46:25.649Z,92.60
2023-01-20T11:49:11.512Z,93.40
2023-01-20T11:52:05.245Z,93.10
2023-01-20T11:54:31.885Z,93.10
2023-01-20T11:57:06.573Z,93.00
2023-01-20T11:59:37.227Z,93.00
2023-01-20T12:02:07.152Z,92.70
2023-01-20T12:05:01.957Z,92.50
2023-01-20T12:07:41.626Z,92.50
2023-01-20T12:10:25.843Z,93.10
2023-01-20T12:12:57.518Z,93.00
2023-01-20T12:15:32.887Z,92.90
2023-01-20T12:18:11.731Z,93.10
2023-01-20T12:20:57.518Z,92.90
2023-01-20T12:23:45.795Z,92.90
2023-01-20T12:26:21.456Z,92.60
2023-01-20T12:29:02.704Z,92.80
2023-01-20T12:31:30.979Z,92.70
2023-01-20T12:34:04.459Z,92.60
2023-01-20T12:37:08.819Z,92.60
2023-01-20T12:40:07.236Z,92.50
2023-01-20T12:43:05.911Z,92.40
2023-01-20T12:46:16.789Z,93.00
2023-01-20T12:48:58.614Z,93.00
2023-01-20T12:51:31.237Z,93.10
2023-01-20T12:54:30.544Z,93.20
2023-01-20T12:57:27.598Z,92.90
2023-01-20T13:00:23.109Z,92.80
2023-01-20T13:03:01.451Z,93.30
2023-01-20T13:05:46.993Z,93.20
2023-01-20T13:08:27.531Z,92.90
2023-01-20T13:11:16.635Z,93.50
2023-01-20T13:14:14.300Z,93.30
2023-01-20T13:17:06.594Z,93.30
2023-01-20T13:19:37.126Z,93.40
2023-01-20T13:22:21.254Z,93.30
2023-01-20T13:24:50.713Z,93.40
2023-01-20T13:27:24.842Z,93.60
2023-01-20T13:29:51.393Z,93.70
2023-01-20T13:32:39.837Z,93.70
2023-01-20T13:35:18.536Z,93.50
2023-01-20T13:37:56.304Z,93.60
2023-01-20T13:40:38.278Z,93.40
2023-01-20T13:43:23.885Z,93.30
2023-01-20T13:46:17.479Z,93.00
2023-01-20T13:49:33.249Z,93.20
2023-01-20T13:51:59.847Z,92.80
2023-01-20T13:54:28.938Z,92.90
2023-01-20T13:57:21.527Z,92.70
2023-01-20T13:59:48.129Z,92.60
2023-01-20T14:02:22.273Z,93.20
2023-01-20T14:04:49.778Z,93.40
2023-01-20T14:07:28.574Z,93.30
2023-01-20T14:09:57.850Z,93.40
2023-01-20T14:12:25.016Z,93.70
2023-01-20T14:14:52.161Z,93.50
2023-01-20T14:17:21.876Z,93.40
2023-01-20T14:19:50.686Z,93.20
2023-01-20T14:22:24.810Z,93.20
2023-01-20T14:24:53.168Z,93.10
2023-01-20T14:27:22.735Z,93.00
2023-01-20T14:29:51.656Z,93.40
2023-01-20T14:32:34.105Z,93.10
2023-01-20T14:35:02.013Z,93.10
2023-01-20T14:37:36.475Z,93.00
2023-01-20T14:40:11.333Z,92.90
2023-01-20T14:42:41.112Z,92.90
2023-01-20T14:45:23.435Z,93.20
2023-01-20T14:47:50.541Z,93.10
2023-01-20T14:50:19.622Z,93.40
2023-01-20T14:52:46.621Z,93.30
2023-01-20T14:55:34.738Z,93.10
2023-01-20T14:58:18.091Z,93.30
2023-01-20T15:00:46.799Z,93.50
2023-01-20T15:03:28.251Z,93.50
2023-01-20T15:06:00.379Z,94.00
2023-01-20T15:08:32.959Z,94.00
2023-01-20T15:11:18.433Z,93.70
2023-01-20T15:14:00.798Z,93.50
2023-01-20T15:16:44.012Z,93.50
2023-01-20T15:19:13.586Z,93.80
2023-01-20T15:21:43.903Z,94.00
2023-01-20T15:24:22.360Z,93.80
2023-01-20T15:26:51.851Z,93.50
2023-01-20T15:29:24.084Z,93.60
2023-01-20T15:31:51.829Z,93.60
2023-01-20T15:34:18.919Z,93.40
2023-01-20T15:36:46.935Z,93.60
2023-01-20T15:39:18.461Z,93.60
2023-01-20T15:41:45.561Z,93.50
2023-01-20T15:44:12.318Z,93.60
2023-01-20T15:46:40.531Z,93.80
2023-01-20T15:49:11.886Z,93.80
2023-01-20T15:51:38.733Z,93.80
2023-01-20T15:54:07.336Z,93.90
2023-01-20T15:56:35.155Z,93.70
2023-01-20T15:59:02.228Z,93.90
2023-01-20T16:01:29.420Z,94.50
2023-01-20T16:03:57.152Z,94.40
2023-01-20T16:06:29.514Z,94.20
2023-01-20T16:08:56.757Z,94.20
2023-01-20T16:11:23.655Z,94.00
2023-01-20T16:13:50.354Z,94.20
2023-01-20T16:16:20.244Z,94.40
2023-01-20T16:18:47.716Z,94.40
2023-01-20T16:21:18.444Z,94.00
2023-01-20T16:23:45.439Z,94.20
2023-01-20T16:26:22.558Z,94.50
2023-01-20T16:28:56.913Z,94.30
2023-01-20T16:31:25.360Z,94.20
2023-01-20T16:33:53.344Z,94.70
2023-01-20T16:36:22.012Z,94.60
2023-01-20T16:38:50.170Z,94.30
2023-01-20T16:41:26.504Z,94.40
2023-01-20T16:43:54.506Z,94.70
2023-01-20T16:46:32.894Z,94.50
2023-01-20T16:49:01.697Z,94.60
2023-01-20T16:51:29.966Z,94.60
2023-01-20T16:53:57.754Z,94.30
2023-01-20T16:56:27.644Z,94.20
2023-01-20T16:58:57.720Z,94.40
2023-01-20T17:01:25.180Z,94.20
2023-01-20T17:03:53.790Z,94.40
2023-01-20T17:06:26.324Z,94.40
2023-01-20T17:08:54.797Z,94.20
2023-01-20T17:11:22.490Z,94.20
2023-01-20T17:13:49.358Z,94.00
2023-01-20T17:16:16.781Z,94.50
2023-01-20T17:18:46.383Z,94.40
2023-01-20T17:21:13.938Z,94.30
2023-01-20T17:23:41.168Z,94.50
2023-01-20T17:26:08.559Z,94.20
2023-01-20T17:28:35.622Z,94.60
2023-01-20T17:31:03.907Z,94.50
2023-01-20T17:33:30.951Z,94.30
2023-01-20T17:36:00.196Z,94.10
2023-01-20T17:38:28.579Z,93.80
2023-01-20T17:40:59.649Z,93.80
2023-01-20T17:43:26.296Z,94.00
2023-01-20T17:45:52.914Z,94.20
2023-01-20T17:48:19.545Z,94.50
2023-01-20T17:50:46.238Z,94.30
2023-01-20T17:53:12.834Z,94.60
2023-01-20T17:55:39.432Z,94.40
2023-01-20T17:58:06.036Z,94.20
2023-01-20T18:00:32.669Z,94.50
2023-01-20T18:02:59.226Z,94.40
2023-01-20T18:05:27.630Z,94.40
2023-01-20T18:07:54.201Z,94.40
2023-01-20T18:10:20.889Z,94.30
2023-01-20T18:12:47.477Z,94.30
2023-01-20T18:15:14.162Z,94.20
2023-01-20T18:17:43.252Z,94.20
2023-01-20T18:20:11.027Z,94.10
2023-01-20T18:22:37.712Z,94.20
2023-01-20T18:25:04.547Z,94.50
2023-01-20T18:27:31.204Z,94.40
2023-01-20T18:29:57.801Z,94.40
2023-01-20T18:32:24.771Z,94.40
2023-01-20T18:34:51.406Z,94.50
2023-01-20T18:37:18.038Z,94.30
2023-01-20T18:39:44.718Z,94.50
2023-01-20T18:42:11.461Z,94.30
2023-01-20T18:44:38.080Z,94.20
2023-01-20T18:47:05.089Z,94.50
2023-01-20T18:49:31.729Z,94.60
2023-01-20T18:51:58.392Z,94.30
2023-01-20T18:54:26.159Z,94.30
2023-01-20T18:56:52.946Z,94.40
2023-01-20T18:59:19.869Z,94.20
2023-01-20T19:01:46.581Z,94.30
2023-01-20T19:04:13.630Z,94.40
2023-01-20T19:06:42.913Z,94.40
2023-01-20T19:09:10.542Z,94.30
2023-01-20T19:11:40.273Z,94.20
2023-01-20T19:14:09.296Z,94.40
2023-01-20T19:16:42.138Z,94.30
2023-01-20T19:19:10.708Z,93.90
2023-01-20T19:21:37.440Z,94.10
2023-01-20T19:24:06.064Z,94.10
2023-01-20T19:26:35.446Z,94.20
2023-01-20T19:29:05.985Z,94.10
2023-01-20T19:31:35.347Z,94.10
2023-01-20T19:34:02.097Z,94.10
2023-01-20T19:36:28.863Z,94.40
2023-01-20T19:38:55.761Z,94.30
2023-01-20T19:41:27.764Z,94.30
2023-01-20T19:43:57.106Z,94.30
2023-01-20T19:46:26.517Z,94.10
2023-01-20T19:48:55.505Z,94.00
2023-01-20T19:51:22.168Z,94.00
2023-01-20T19:53:50.109Z,93.90
2023-01-20T19:56:18.804Z,93.70
2023-01-20T19:58:46.690Z,94.10
2023-01-20T20:01:14.402Z,94.40
2023-01-20T20:03:41.869Z,94.30
2023-01-20T20:06:23.222Z,94.20
2023-01-20T20:08:50.530Z,94.10
2023-01-20T20:11:17.607Z,94.00
2023-01-20T20:13:44.523Z,94.00
2023-01-20T20:16:11.263Z,94.00
2023-01-20T20:18:37.893Z,93.70
2023-01-20T20:21:05.725Z,93.90
2023-01-20T20:23:32.378Z,93.70
2023-01-20T20:25:59.014Z,93.70
2023-01-20T20:28:27.295Z,93.20
2023-01-20T20:30:57.185Z,93.50
2023-01-20T20:33:24.350Z,93.50
2023-01-20T20:35:51.112Z,93.90
2023-01-20T20:38:17.728Z,93.50
2023-01-20T20:40:44.423Z,93.80
2023-01-20T20:43:11.069Z,93.60
2023-01-20T20:45:37.716Z,93.60
2023-01-20T20:48:04.809Z,93.70
2023-01-20T20:50:31.666Z,93.50
2023-01-20T20:52:58.859Z,93.80
2023-01-20T20:55:26.224Z,93.90
2023-01-20T20:57:52.851Z,93.70
2023-01-20T21:00:23.396Z,93.70
2023-01-20T21:02:50.160Z,93.70
2023-01-20T21:05:18.743Z,93.90
2023-01-20T21:07:45.774Z,93.60
2023-01-20T21:10:15.583Z,93.50
2023-01-20T21:12:43.768Z,93.30
2023-01-20T21:15:11.464Z,93.60
2023-01-20T21:17:39.078Z,93.40
2023-01-20T21:20:07.422Z,93.70
2023-01-20T21:22:34.724Z,93.70
2023-01-20T21:25:01.353Z,93.50
2023-01-20T21:27:27.978Z,93.60
2023-01-20T21:29:54.557Z,93.50
2023-01-20T21:32:21.200Z,93.10
2023-01-20T21:34:47.911Z,93.20
2023-01-20T21:37:14.637Z,93.50
2023-01-20T21:39:41.283Z,93.50
2023-01-20T21:42:09.054Z,93.30
2023-01-20T21:44:36.414Z,93.30
2023-01-20T21:47:05.437Z,93.40
2023-01-20T21:49:50.540Z,93.80
2023-01-20T21:52:38.523Z,93.30
2023-01-20T21:55:07.122Z,93.80
2023-01-20T21:57:33.995Z,93.80
2023-01-20T22:00:01.957Z,93.70
2023-01-20T22:02:29.572Z,93.50
2023-01-20T22:04:56.601Z,93.40
2023-01-20T22:07:23.970Z,93.20
2023-01-20T22:09:50.630Z,93.20
2023-01-20T22:12:17.332Z,92.90
2023-01-20T22:14:43.975Z,93.10
2023-01-20T22:17:11.560Z,92.70
2023-01-20T22:19:38.619Z,93.10
2023-01-20T22:22:05.812Z,93.00
2023-01-20T22:24:32.601Z,93.10
2023-01-20T22:26:59.379Z,92.70
2023-01-20T22:29:26.051Z,93.00
2023-01-20T22:31:54.010Z,92.80
2023-01-20T22:34:21.635Z,92.80
2023-01-20T22:36:48.448Z,92.70
2023-01-20T22:39:15.760Z,92.70
2023-01-20T22:41:42.757Z,92.70
2023-01-20T22:44:09.564Z,92.70
2023-01-20T22:46:36.313Z,92.80
2023-01-20T22:49:03.075Z,93.10
2023-01-20T22:51:30.378Z,92.70
2023-01-20T22:53:59.108Z,92.50
2023-01-20T22:56:28.595Z,92.60
2023-01-20T22:58:56.745Z,92.40
2023-01-20T23:01:26.535Z,92.90
2023-01-20T23:03:55.271Z,92.60
2023-01-20T23:06:22.922Z,92.50
2023-01-20T23:08:50.208Z,92.40
2023-01-20T23:11:18.950Z,92.40
2023-01-20T23:13:46.604Z,92.70
2023-01-20T23:16:16.527Z,92.70
2023-01-20T23:18:44.279Z,92.70
2023-01-20T23:21:11.524Z,92.60
2023-01-20T23:23:38.703Z,92.70
2023-01-20T23:26:15.255Z,92.60
2023-01-20T23:28:43.496Z,92.40
2023-01-20T23:31:11.806Z,92.40
2023-01-20T23:33:38.599Z,92.30
2023-01-20T23:36:16.819Z,92.20
2023-01-20T23:38:44.380Z,92.30
2023-01-20T23:41:12.565Z,92.20
2023-01-20T23:43:39.405Z,92.00
2023-01-20T23:46:06.782Z,92.20
2023-01-20T23:48:34.481Z,92.30
2023-01-20T23:51:02.031Z,92.30
2023-01-20T23:53:31.236Z,92.50
2023-01-20T23:56:06.620Z,92.60
2023-01-20T23:58:33.662Z,92.40
